Time;durP1;ratioP1;P1;durP2;ratioP2;P2;SDS_P1;SDS_P2;PMS_P1;PMS_P2;Temp;Humidity;BMP_temperature;BMP_pressure;BME280_temperature;BME280_humidity;BME280_pressure;Samples;Min_cycle;Max_cycle;Signal;HPM_P1;HPM_P2
2023/05/12 00:02:00;;;;;;;1.25;1.15;;;;;;;18.99;65.02;101393.50;20901130;28;20054;-64
2023/05/12 00:12:02;;;;;;;0.80;0.80;;;;;;;18.93;64.88;101372.41;20898503;28;20055;-64
2023/05/12 00:22:04;;;;;;;0.90;0.90;;;;;;;18.98;65.05;101375.59;20905385;28;20044;-64
2023/05/12 00:32:05;;;;;;;2.03;1.10;;;;;;;18.97;65.21;101371.19;20906185;28;20071;-64
2023/05/12 00:42:07;;;;;;;1.13;1.02;;;;;;;18.95;65.00;101365.03;20887271;28;20095;-64
2023/05/12 00:52:09;;;;;;;1.50;1.40;;;;;;;18.95;65.14;101370.44;20886402;28;20048;-65
2023/05/12 01:02:11;;;;;;;1.90;1.40;;;;;;;18.94;65.07;101368.72;20891661;28;20045;-64
2023/05/12 01:12:14;;;;;;;1.65;1.55;;;;;;;18.94;64.87;101357.09;20902674;28;20064;-64
2023/05/12 01:22:17;;;;;;;1.65;1.30;;;;;;;18.93;65.18;101372.41;20900190;28;20098;-64
2023/05/12 01:32:20;;;;;;;1.58;1.48;;;;;;;18.92;65.11;101362.63;20900072;28;20141;-65
2023/05/12 01:42:22;;;;;;;2.08;1.38;;;;;;;18.93;65.12;101371.56;20883354;28;20053;-64
2023/05/12 01:52:24;;;;;;;1.50;1.40;;;;;;;18.92;65.02;101388.75;20899524;28;20049;-64
2023/05/12 02:02:27;;;;;;;1.77;1.55;;;;;;;18.92;65.02;101386.06;20885871;28;20099;-64
2023/05/12 02:12:28;;;;;;;1.50;1.40;;;;;;;18.90;65.21;101383.47;20904878;28;20562;-65
2023/05/12 02:22:30;;;;;;;1.60;1.50;;;;;;;18.89;65.21;101381.75;20913928;28;20196;-64
2023/05/12 02:32:32;;;;;;;2.08;1.70;;;;;;;18.90;65.17;101394.25;20913539;28;20447;-65
2023/05/12 02:42:37;;;;;;;1.73;1.58;;;;;;;18.89;64.95;101407.91;20913240;28;20500;-65
2023/05/12 02:52:39;;;;;;;2.60;2.07;;;;;;;18.88;65.10;101404.34;20913461;28;20795;-64
2023/05/12 03:02:41;;;;;;;1.70;1.60;;;;;;;18.88;65.18;101404.34;20885840;28;20079;-65
2023/05/12 03:12:43;;;;;;;2.17;1.77;;;;;;;18.88;65.26;101393.53;20911101;28;20493;-64
2023/05/12 03:22:45;;;;;;;2.15;1.70;;;;;;;18.88;65.15;101412.44;20911064;28;20049;-64
2023/05/12 03:32:46;;;;;;;2.08;1.88;;;;;;;18.88;65.17;101400.78;20908967;28;20519;-65
2023/05/12 03:42:48;;;;;;;2.45;2.00;;;;;;;18.88;65.04;101409.72;20908474;28;20045;-65
2023/05/12 03:52:54;;;;;;;2.95;2.20;;;;;;;18.87;65.13;101405.31;20907912;28;20071;-65
2023/05/12 04:02:56;;;;;;;3.00;2.40;;;;;;;18.86;65.49;101411.69;20894616;28;20478;-65
2023/05/12 04:12:58;;;;;;;3.15;2.50;;;;;;;18.86;65.46;101417.09;20906537;28;20056;-64
2023/05/12 04:23:00;;;;;;;3.15;2.25;;;;;;;18.87;65.45;101420.66;20889659;28;20191;-65
2023/05/12 04:33:01;;;;;;;2.75;2.25;;;;;;;18.86;65.54;101418.97;20903062;28;20060;-65
2023/05/12 04:43:03;;;;;;;2.25;2.05;;;;;;;18.86;65.62;101425.19;20903427;28;20091;-65
2023/05/12 04:53:06;;;;;;;2.97;2.47;;;;;;;18.85;65.71;101428.88;20904042;28;20417;-65
2023/05/12 05:03:07;;;;;;;2.97;2.55;;;;;;;18.85;65.68;101439.66;20888057;28;20041;-65
2023/05/12 05:13:09;;;;;;;3.38;3.05;;;;;;;18.87;65.88;101458.44;20902651;28;20148;-65
2023/05/12 05:23:11;;;;;;;2.90;2.55;;;;;;;18.86;65.72;101471.06;20902981;28;20444;-65
2023/05/12 05:33:13;;;;;;;3.47;2.67;;;;;;;18.82;66.01;101456.13;20901429;28;20053;-65
2023/05/12 05:43:14;;;;;;;3.47;2.72;;;;;;;18.86;65.81;101472.91;20900588;28;20072;-65
2023/05/12 05:53:20;;;;;;;3.13;2.83;;;;;;;18.86;65.95;101479.16;20896353;28;20490;-65
2023/05/12 06:03:22;;;;;;;3.20;2.72;;;;;;;18.85;66.03;101493.63;20891075;28;20068;-65
2023/05/12 06:13:24;;;;;;;3.85;3.03;;;;;;;18.85;66.07;101509.81;20898127;28;20053;-65
2023/05/12 06:23:25;;;;;;;3.58;2.78;;;;;;;18.85;66.07;101507.09;20898729;28;20103;-65
2023/05/12 06:33:27;;;;;;;3.35;2.78;;;;;;;18.85;66.04;101534.09;20899323;28;20045;-65
2023/05/12 06:43:28;;;;;;;3.75;3.33;;;;;;;18.84;66.18;101533.25;20898403;28;20045;-65
2023/05/12 06:53:31;;;;;;;3.67;3.00;;;;;;;18.85;66.00;101547.56;20886661;28;20053;-65
2023/05/12 07:03:32;;;;;;;3.83;3.45;;;;;;;18.84;66.24;101548.56;20908974;28;20053;-65
2023/05/12 07:13:34;;;;;;;3.40;3.10;;;;;;;18.85;66.36;101552.97;20912304;28;20079;-65
2023/05/12 07:23:36;;;;;;;4.45;3.30;;;;;;;18.85;66.23;101563.75;20911732;28;20081;-65
2023/05/12 07:33:38;;;;;;;3.58;2.60;;;;;;;18.87;66.24;101571.75;20911256;28;20405;-65
2023/05/12 07:43:39;;;;;;;3.30;2.85;;;;;;;18.86;66.26;101576.25;20909670;28;20060;-65
2023/05/12 07:53:41;;;;;;;3.40;3.10;;;;;;;18.87;66.22;101583.38;20899985;28;20083;-65
2023/05/12 08:03:42;;;;;;;3.15;2.85;;;;;;;18.88;66.41;101603.97;20908624;28;20067;-65
2023/05/12 08:13:44;;;;;;;3.10;2.80;;;;;;;18.89;66.44;101608.38;20906877;28;20049;-65
2023/05/12 08:23:46;;;;;;;2.95;2.65;;;;;;;18.91;66.24;101638.78;20906887;28;20052;-63
2023/05/12 08:33:47;;;;;;;3.00;2.70;;;;;;;18.92;66.43;101623.47;20906507;28;20493;-63
2023/05/12 08:43:52;;;;;;;;;;;;;;;18.93;66.17;101615.25;20905726;28;20049;-63
2023/05/12 08:53:55;;;;;;;3.28;2.80;;;;;;;18.87;66.53;101610.34;20891689;28;19921;-63
2023/05/12 09:03:56;;;;;;;2.90;2.70;;;;;;;18.99;66.50;101613.94;20903321;28;20386;-62
2023/05/12 09:14:08;;;;;;;2.92;2.70;;;;;;;19.05;66.40;101628.75;20902769;28;20120;-63
2023/05/12 09:24:10;;;;;;;2.58;2.30;;;;;;;19.10;66.24;101629.25;20900596;28;20049;-63
2023/05/12 09:34:12;;;;;;;2.60;2.40;;;;;;;19.12;66.46;101638.06;20900098;28;20060;-63
2023/05/12 09:44:15;;;;;;;2.78;2.45;;;;;;;19.17;66.44;101632.28;20901181;28;20056;-63
2023/05/12 09:54:27;;;;;;;2.35;2.15;;;;;;;19.25;66.19;101637.91;20884338;28;20057;-63
2023/05/12 10:04:38;;;;;;;2.72;2.10;;;;;;;19.32;66.22;101639.13;20899958;28;20053;-63
2023/05/12 10:14:40;;;;;;;1.88;1.73;;;;;;;19.37;65.96;101630.59;20898927;28;20059;-63
2023/05/12 10:24:43;;;;;;;1.85;1.75;;;;;;;19.42;66.04;101637.34;20899165;28;20057;-63
2023/05/12 10:34:45;;;;;;;2.08;1.88;;;;;;;19.45;66.09;101635.38;20905981;28;20060;-63
2023/05/12 10:44:52;;;;;;;2.70;1.80;;;;;;;19.49;65.91;101631.44;20914663;28;20122;-63
2023/05/12 10:55:01;;;;;;;1.60;1.50;;;;;;;19.55;65.55;101626.38;20902184;28;20090;-63
2023/05/12 11:05:08;;;;;;;1.52;1.42;;;;;;;19.58;65.57;101629.81;20912551;28;20556;-63
2023/05/12 11:15:11;;;;;;;1.88;1.70;;;;;;;19.53;65.48;101620.25;20910555;28;20041;-63
2023/05/12 11:25:13;;;;;;;1.60;1.50;;;;;;;19.62;65.23;101626.69;20911595;28;20055;-63
2023/05/12 11:35:18;;;;;;;1.40;1.30;;;;;;;19.64;65.09;101629.28;20910174;28;20146;-63
2023/05/12 11:45:24;;;;;;;1.40;1.30;;;;;;;19.67;65.15;101623.63;20902979;28;20409;-63
2023/05/12 11:55:26;;;;;;;1.30;1.20;;;;;;;19.69;64.88;101635.16;20900594;28;20084;-63
2023/05/12 12:05:28;;;;;;;1.40;1.30;;;;;;;19.70;64.84;101632.34;20908897;28;20415;-63
2023/05/12 12:15:29;;;;;;;1.45;1.35;;;;;;;19.69;64.68;101629.75;20907024;28;20053;-63
2023/05/12 12:25:31;;;;;;;1.00;1.00;;;;;;;19.74;64.44;101629.38;20905912;28;20049;-65
2023/05/12 12:35:32;;;;;;;1.00;1.00;;;;;;;19.74;64.57;101626.66;20906063;28;20059;-65
2023/05/12 12:45:35;;;;;;;1.23;1.13;;;;;;;19.76;64.18;101617.44;20894941;28;20543;-65
2023/05/12 12:55:36;;;;;;;1.00;0.90;;;;;;;19.78;64.19;101630.81;20901976;28;20686;-65
2023/05/12 13:05:38;;;;;;;1.20;1.10;;;;;;;19.78;64.23;101630.81;20903583;28;20103;-65
2023/05/12 13:15:40;;;;;;;0.80;0.80;;;;;;;19.71;63.99;101622.38;20902855;28;20049;-65
2023/05/12 13:25:43;;;;;;;0.82;0.82;;;;;;;19.76;64.07;101633.63;20901595;28;20045;-64
2023/05/12 13:35:45;;;;;;;0.90;0.90;;;;;;;19.74;63.98;101622.09;20901378;28;20456;-64
2023/05/12 13:45:47;;;;;;;1.08;1.02;;;;;;;19.74;63.67;101613.16;20887408;28;20080;-64
2023/05/12 13:55:48;;;;;;;1.05;0.95;;;;;;;19.73;63.81;101612.28;20899852;28;20053;-64
2023/05/12 14:05:50;;;;;;;1.08;1.00;;;;;;;19.73;63.60;101623.09;20900187;28;20071;-64
2023/05/12 14:15:52;;;;;;;0.93;0.93;;;;;;;19.70;63.40;101626.06;20917349;28;20531;-64
2023/05/12 14:25:54;;;;;;;0.85;0.85;;;;;;;19.70;63.50;101623.34;20916363;28;20533;-64
2023/05/12 14:35:56;;;;;;;1.25;1.15;;;;;;;19.69;63.30;101616.25;20915018;28;20056;-64
2023/05/12 14:46:09;;;;;;;1.10;0.95;;;;;;;19.68;63.30;101619.94;20898137;28;20124;-64
2023/05/12 14:56:11;;;;;;;0.90;0.90;;;;;;;19.68;63.02;101625.31;20913874;28;20124;-64
2023/05/12 15:06:12;;;;;;;1.05;1.02;;;;;;;19.66;63.07;101630.84;20912970;28;20552;-64
2023/05/12 15:16:16;;;;;;;0.70;0.70;;;;;;;19.66;63.14;101635.41;20911837;28;20041;-64
2023/05/12 15:26:18;;;;;;;0.80;0.80;;;;;;;19.64;62.91;101629.28;20910522;28;20041;-64
2023/05/12 15:36:34;;;;;;;0.90;0.90;;;;;;;19.66;62.86;101627.31;20910765;28;20055;-64
2023/05/12 15:46:36;;;;;;;0.90;0.90;;;;;;;19.67;62.77;101635.28;20898769;28;20099;-64
2023/05/12 15:56:38;;;;;;;1.30;1.20;;;;;;;19.66;62.71;101641.66;20908951;28;20422;-64
2023/05/12 16:06:39;;;;;;;0.90;0.90;;;;;;;19.66;62.72;101643.50;20908214;28;20048;-64
2023/05/12 16:16:46;;;;;;;0.70;0.70;;;;;;;19.65;62.45;101644.50;20907211;28;20505;-64
2023/05/12 16:26:48;;;;;;;0.90;0.85;;;;;;;19.63;62.51;101646.47;20907067;28;20406;-64
2023/05/12 16:36:50;;;;;;;0.75;0.60;;;;;;;19.62;62.56;101652.88;20905137;28;20052;-64
2023/05/12 16:46:52;;;;;;;0.93;0.80;;;;;;;19.62;62.54;101650.16;20890230;28;20057;-64
2023/05/12 16:56:55;;;;;;;0.90;0.90;;;;;;;19.60;62.41;101658.38;20903339;28;20098;-64
2023/05/12 17:06:56;;;;;;;0.80;0.73;;;;;;;19.61;62.49;101651.16;20903274;28;20128;-64
2023/05/12 17:16:58;;;;;;;0.70;0.70;;;;;;;19.60;62.50;101665.66;20902910;28;20055;-64
2023/05/12 17:27:00;;;;;;;1.10;0.90;;;;;;;19.54;62.50;101667.88;20902297;28;20053;-64
2023/05/12 17:37:03;;;;;;;0.80;0.80;;;;;;;19.60;62.30;101676.44;20898110;28;20048;-64
2023/05/12 17:47:05;;;;;;;1.00;0.90;;;;;;;19.58;62.38;101689.22;20893236;28;20049;-64
2023/05/12 17:57:08;;;;;;;0.80;0.80;;;;;;;19.56;62.07;101684.81;20899587;28;20055;-64
2023/05/12 18:07:09;;;;;;;1.30;1.02;;;;;;;19.57;62.07;101699.16;20882301;28;20053;-64
2023/05/12 18:17:11;;;;;;;1.00;0.90;;;;;;;19.55;62.24;101706.53;20899195;28;20041;-64
2023/05/12 18:27:12;;;;;;;0.90;0.90;;;;;;;19.53;61.85;101722.88;20899041;28;20080;-64
2023/05/12 18:37:14;;;;;;;0.70;0.70;;;;;;;19.53;62.01;101730.97;20885946;28;20053;-64
2023/05/12 18:47:16;;;;;;;0.70;0.70;;;;;;;19.50;62.01;101736.63;20898258;28;20056;-64
2023/05/12 18:57:17;;;;;;;0.85;0.85;;;;;;;19.51;61.78;101750.97;20907978;28;20094;-64
2023/05/12 19:07:19;;;;;;;0.88;0.70;;;;;;;19.49;61.84;101767.34;20913680;28;20053;-64
2023/05/12 19:17:20;;;;;;;1.98;1.05;;;;;;;19.47;61.91;101777.41;20912215;28;20167;-64
2023/05/12 19:27:23;;;;;;;1.00;0.90;;;;;;;19.47;61.91;101780.09;20910537;28;20090;-64
2023/05/12 19:37:26;;;;;;;0.82;0.82;;;;;;;19.46;61.63;101789.19;20894441;28;20528;-64
2023/05/12 19:47:28;;;;;;;1.10;1.00;;;;;;;19.46;61.54;101794.59;20910081;28;20516;-64
2023/05/12 19:57:30;;;;;;;0.90;0.70;;;;;;;19.44;61.50;101795.69;20909104;28;20076;-64
2023/05/12 20:07:32;;;;;;;1.15;0.90;;;;;;;19.42;61.16;101814.69;20906942;28;20048;-64
2023/05/12 20:17:34;;;;;;;1.08;0.98;;;;;;;19.40;61.10;101822.94;20907510;28;20107;-64
2023/05/12 20:27:35;;;;;;;1.10;0.90;;;;;;;19.39;61.09;101825.75;20905887;28;20517;-64
2023/05/12 20:37:39;;;;;;;0.80;0.80;;;;;;;19.38;61.02;101835.72;20894282;28;20048;-64
2023/05/12 20:47:41;;;;;;;1.40;1.20;;;;;;;19.36;60.36;101842.19;20905576;28;20061;-64
2023/05/12 20:57:43;;;;;;;1.10;1.00;;;;;;;19.35;60.53;101843.19;20904668;28;20080;-64
2023/05/12 21:07:44;;;;;;;1.13;1.02;;;;;;;19.34;60.67;101833.38;20903575;28;20463;-64
2023/05/12 21:17:46;;;;;;;1.67;1.20;;;;;;;19.32;60.37;101843.44;20903405;28;20045;-64
2023/05/12 21:27:48;;;;;;;1.42;1.00;;;;;;;19.31;60.56;101844.41;20902217;28;20053;-64
2023/05/12 21:37:49;;;;;;;1.20;1.10;;;;;;;19.28;60.49;101840.97;20887045;28;20061;-64
2023/05/12 21:47:51;;;;;;;2.00;1.40;;;;;;;19.29;60.20;101849.94;20901096;28;20052;-64
2023/05/12 21:57:53;;;;;;;1.40;1.30;;;;;;;19.26;60.08;101848.34;20899227;28;20053;-64
2023/05/12 22:07:55;;;;;;;1.33;1.23;;;;;;;19.26;60.12;101858.28;20900188;28;20068;-64
2023/05/12 22:17:56;;;;;;;1.73;1.50;;;;;;;19.21;59.92;101858.66;20900026;28;20049;-64
2023/05/12 22:27:58;;;;;;;1.58;1.38;;;;;;;19.24;60.03;101866.50;20902183;28;20412;-64
2023/05/12 22:37:59;;;;;;;1.60;1.33;;;;;;;19.23;59.70;101869.34;20904913;28;20513;-64
2023/05/12 22:48:01;;;;;;;1.30;1.20;;;;;;;19.22;59.83;101867.59;20914496;28;20048;-64
2023/05/12 22:58:03;;;;;;;1.58;1.48;;;;;;;19.20;59.58;101866.84;20912424;28;20106;-64
2023/05/12 23:08:04;;;;;;;1.98;1.65;;;;;;;19.18;59.53;101858.91;20912453;28;20049;-64
2023/05/12 23:18:06;;;;;;;1.50;1.40;;;;;;;19.18;59.42;101867.00;20910987;28;20548;-64
2023/05/12 23:28:08;;;;;;;1.50;1.40;;;;;;;19.17;59.25;101859.88;20906795;28;20433;-64
2023/05/12 23:38:09;;;;;;;1.33;1.23;;;;;;;19.15;59.32;101861.84;20902014;28;20055;-64
2023/05/12 23:48:11;;;;;;;1.75;1.55;;;;;;;19.13;59.22;101853.84;20908612;28;20037;-64
2023/05/12 23:58:12;;;;;;;1.35;1.25;;;;;;;19.12;59.25;101846.72;20909906;28;20055;-64
